Rogers City, MI

1:27 AM EDT on April 25, 2017 (GMT -0400)
Presque Isle County

Weather History for KPZQ - October, 2012

Change the Weather History Date:

Saturday, October 27, 2012

  Actual Average (KAPN) Record (KAPN)
Temperature  
Mean Temperature 38 °F -  
Max Temperature 44 °F 54 °F 79 °F (1927)
Min Temperature 33 °F 35 °F 16 °F (1936)
Degree Days  
Heating Degree Days 26    
Moisture  
Dew Point 28 °F    
Average Humidity 63    
Maximum Humidity 82    
Minimum Humidity 48    
Precipitation  
Precipitation 0.00 in - - ()
Sea Level Pressure  
Sea Level Pressure 30.27 in    
Wind  
Wind Speed 6 mph (WNW)    
Max Wind Speed 10 mph    
Max Gust Speed 17 mph    
Visibility 10 miles    
Events      
Averages and records for this station are not official NWS values.
T = Trace of Precipitation, MM = Missing Value Source: NWS Daily Summary

Daily Weather History Graph

Daily Weather History Graph

Search for Another Location

Airport or City:

Trip Planner

Search our weather history database for the weather conditions in past years. The results will help you decide how hot, cold, wet, or windy it might be!

Date:

Astronomy

Oct. 27, 2012 Rise Set
Actual Time 8:08 AM EDT 6:29 PM EDT
Civil Twilight 7:37 AM EDT 6:59 PM EDT
Nautical Twilight 7:03 AM EDT 7:34 PM EDT
Astronomical Twilight 6:28 AM EDT 8:08 PM EDT
Moon 5:17 PM EDT (10/27) 5:58 AM EDT (10/27)
Length of Visible Light 11h 21m
Length of Day
10h 20m
Waxing Gibbous, 96% of the Moon is Illuminated
Oct 27
Waxing Gibbous
Oct 29
Full
Nov 6
Last Quarter
Nov 13
New
Nov 20
First Quarter

Hourly Weather History & Observations

Time (EDT) Temp. Windchill Dew Point Humidity Pressure Visibility Wind Dir Wind Speed Gust Speed Precip Events Conditions
12:14 AM 33.3 °F 28.9 °F 27.9 °F 81% 30.28 in 10.0 mi WSW 4.6 mph - N/A   Clear
12:34 AM 34.0 °F 28.8 °F 28.9 °F 82% 30.29 in 10.0 mi WSW 5.8 mph - N/A   Scattered Clouds
12:55 AM 34.3 °F 29.2 °F 29.1 °F 81% 30.29 in 10.0 mi SW 5.8 mph - N/A   Mostly Cloudy
1:14 AM 33.4 °F 29.1 °F 28.6 °F 82% 30.28 in 10.0 mi WSW 4.6 mph - N/A   Scattered Clouds
1:34 AM 34.9 °F 29.9 °F 29.1 °F 79% 30.28 in 10.0 mi West 5.8 mph - N/A   Clear
1:54 AM 36.0 °F 32.1 °F 30.0 °F 79% 30.27 in 10.0 mi West 4.6 mph - N/A   Mostly Cloudy
2:14 AM 36.5 °F 32.7 °F 30.2 °F 78% 30.27 in 10.0 mi West 4.6 mph - N/A   Overcast
2:35 AM 36.5 °F 31.8 °F 30.7 °F 80% 30.27 in 10.0 mi West 5.8 mph - N/A   Overcast
2:54 AM 37.4 °F 33.8 °F 31.1 °F 78% 30.26 in 10.0 mi West 4.6 mph - N/A   Overcast
3:15 AM 38.7 °F 35.2 °F 31.1 °F 74% 30.26 in 10.0 mi West 4.6 mph - N/A   Overcast
3:34 AM 39.4 °F 35.2 °F 30.9 °F 72% 30.26 in 10.0 mi West 5.8 mph - N/A   Overcast
3:54 AM 39.9 °F 35.8 °F 30.7 °F 70% 30.26 in 10.0 mi West 5.8 mph - N/A   Mostly Cloudy
4:34 AM 38.5 °F 36.1 °F 30.2 °F 72% 30.26 in 10.0 mi West 3.5 mph - N/A   Mostly Cloudy
4:54 AM 37.9 °F 35.5 °F 30.2 °F 74% 30.27 in 10.0 mi West 3.5 mph - N/A   Mostly Cloudy
5:15 AM 38.3 °F 34.8 °F 30.4 °F 73% 30.27 in 10.0 mi West 4.6 mph - N/A   Overcast
5:34 AM 38.5 °F - 30.4 °F 73% 30.27 in 10.0 mi Calm Calm - N/A   Overcast
5:54 AM 38.5 °F 35.0 °F 29.8 °F 71% 30.27 in 10.0 mi West 4.6 mph - N/A   Overcast
6:14 AM 38.3 °F 35.9 °F 29.5 °F 71% 30.28 in 10.0 mi WSW 3.5 mph - N/A   Overcast
6:34 AM 37.4 °F 33.8 °F 29.5 °F 73% 30.28 in 10.0 mi WSW 4.6 mph - N/A   Mostly Cloudy
6:55 AM 36.7 °F 32.9 °F 30.0 °F 77% 30.28 in 10.0 mi West 4.6 mph - N/A   Mostly Cloudy
7:14 AM 37.4 °F 33.8 °F 29.8 °F 74% 30.28 in 10.0 mi West 4.6 mph - N/A   Mostly Cloudy
7:34 AM 37.6 °F 34.0 °F 29.5 °F 73% 30.28 in 10.0 mi West 4.6 mph - N/A   Overcast
7:55 AM 37.9 °F 34.4 °F 29.3 °F 71% 30.28 in 10.0 mi WNW 4.6 mph - N/A   Mostly Cloudy
8:14 AM 38.3 °F 34.8 °F 29.7 °F 71% 30.28 in 10.0 mi West 4.6 mph - N/A   Overcast
8:34 AM 38.7 °F 34.3 °F 29.3 °F 69% 30.29 in 10.0 mi West 5.8 mph - N/A   Overcast
8:54 AM 39.2 °F 35.0 °F 29.7 °F 69% 30.29 in 10.0 mi West 5.8 mph - N/A   Overcast
9:14 AM 40.1 °F 36.1 °F 30.2 °F 68% 30.30 in 10.0 mi WNW 5.8 mph - N/A   Overcast
9:35 AM 41.5 °F 35.9 °F 30.2 °F 64% 30.30 in 10.0 mi NW 9.2 mph - N/A   Overcast
10:14 AM 42.4 °F 37.0 °F 29.7 °F 61% 30.30 in 10.0 mi NNW 9.2 mph - N/A   Overcast
10:35 AM 42.8 °F 38.6 °F 29.3 °F 59% 30.30 in 10.0 mi NNW 6.9 mph - N/A   Overcast
10:54 AM 42.8 °F 38.0 °F 28.8 °F 58% 30.30 in 10.0 mi NNW 8.1 mph - N/A   Overcast
11:14 AM 43.2 °F 39.0 °F 30.2 °F 60% 30.30 in 10.0 mi NNW 6.9 mph - N/A   Overcast
11:35 AM 43.3 °F 39.2 °F 30.4 °F 60% 30.29 in 10.0 mi NNW 6.9 mph - N/A   Overcast
11:54 AM 43.7 °F 39.7 °F 30.9 °F 61% 30.29 in 10.0 mi NNW 6.9 mph - N/A   Overcast
12:14 PM 43.7 °F 40.3 °F 29.7 °F 58% 30.29 in 10.0 mi NNW 5.8 mph - N/A   Overcast
12:34 PM 43.7 °F 39.7 °F 29.3 °F 57% 30.28 in 10.0 mi North 6.9 mph - N/A   Overcast
12:54 PM 44.2 °F 40.3 °F 29.3 °F 56% 30.27 in 10.0 mi North 6.9 mph - N/A   Overcast
1:15 PM 44.6 °F 40.7 °F 28.9 °F 54% 30.26 in 10.0 mi NNW 6.9 mph - N/A   Overcast
1:34 PM 44.8 °F 41.0 °F 28.8 °F 53% 30.26 in 10.0 mi NNW 6.9 mph - N/A   Overcast
1:54 PM 44.6 °F 40.2 °F 28.6 °F 53% 30.26 in 10.0 mi NW 8.1 mph - N/A   Overcast
2:15 PM 44.1 °F 40.1 °F 28.2 °F 54% 30.26 in 10.0 mi NW 6.9 mph - N/A   Overcast
2:34 PM 44.2 °F 40.3 °F 28.0 °F 53% 30.25 in 10.0 mi NNW 6.9 mph - N/A   Overcast
2:54 PM 43.7 °F 40.3 °F 28.2 °F 54% 30.25 in 10.0 mi North 5.8 mph - N/A   Overcast
3:14 PM 43.7 °F 41.1 °F 28.0 °F 54% 30.25 in 10.0 mi NNW 4.6 mph - N/A   Overcast
3:34 PM 43.7 °F 39.1 °F 28.2 °F 54% 30.25 in 10.0 mi NW 8.1 mph - N/A   Overcast
3:54 PM 43.5 °F 38.9 °F 28.4 °F 55% 30.25 in 10.0 mi NNW 8.1 mph - N/A   Overcast
4:14 PM 43.3 °F 39.2 °F 27.5 °F 54% 30.25 in 10.0 mi NNW 6.9 mph - N/A   Overcast
4:34 PM 43.2 °F 37.9 °F 26.4 °F 52% 30.26 in 10.0 mi NW 9.2 mph - N/A   Overcast
4:54 PM 43.7 °F 41.1 °F 26.4 °F 51% 30.26 in 10.0 mi NNW 4.6 mph - N/A   Overcast
5:15 PM 43.3 °F 39.2 °F 25.7 °F 50% 30.26 in 10.0 mi NW 6.9 mph - N/A   Overcast
5:34 PM 43.2 °F 39.0 °F 24.6 °F 48% 30.26 in 10.0 mi NW 6.9 mph - N/A   Overcast
5:54 PM 43.0 °F 38.2 °F 24.4 °F 48% 30.26 in 10.0 mi NNW 8.1 mph - N/A   Overcast
6:14 PM 42.4 °F 37.5 °F 23.9 °F 48% 30.26 in 10.0 mi NNW 8.1 mph 17.3 mph N/A   Mostly Cloudy
6:34 PM 41.7 °F 37.3 °F 23.9 °F 49% 30.26 in 10.0 mi NW 6.9 mph - N/A   Scattered Clouds
6:55 PM 41.0 °F 37.1 °F 23.7 °F 50% 30.27 in 10.0 mi NW 5.8 mph - N/A   Scattered Clouds
7:14 PM 40.1 °F 36.9 °F 23.0 °F 51% 30.28 in 10.0 mi WNW 4.6 mph - N/A   Clear
7:34 PM 39.2 °F 35.9 °F 23.2 °F 53% 30.27 in 10.0 mi West 4.6 mph - N/A   Mostly Cloudy
7:55 PM 39.4 °F 36.1 °F 23.9 °F 54% 30.28 in 10.0 mi West 4.6 mph - N/A   Mostly Cloudy
8:14 PM 39.4 °F 35.2 °F 25.5 °F 58% 30.28 in 10.0 mi West 5.8 mph - N/A   Overcast
8:34 PM 38.8 °F 36.5 °F 25.9 °F 60% 30.28 in 10.0 mi West 3.5 mph - N/A   Mostly Cloudy
8:55 PM 39.4 °F 36.1 °F 26.4 °F 60% 30.28 in 10.0 mi West 4.6 mph - N/A   Overcast
9:14 PM 39.4 °F 35.2 °F 26.4 °F 60% 30.27 in 10.0 mi West 5.8 mph - N/A   Overcast
9:35 PM 39.4 °F 35.2 °F 25.7 °F 58% 30.27 in 10.0 mi West 5.8 mph - N/A   Overcast
9:54 PM 39.2 °F 35.0 °F 25.7 °F 58% 30.27 in 10.0 mi West 5.8 mph - N/A   Overcast
10:14 PM 39.2 °F 35.9 °F 25.5 °F 58% 30.27 in 10.0 mi West 4.6 mph - N/A   Overcast
10:35 PM 39.4 °F 34.5 °F 25.7 °F 58% 30.27 in 10.0 mi WNW 6.9 mph - N/A   Overcast
10:54 PM 41.4 °F 35.2 °F 29.3 °F 62% 30.27 in 10.0 mi NNW 10.4 mph - N/A   Overcast
11:14 PM 42.3 °F 37.3 °F 28.4 °F 58% 30.28 in 10.0 mi NW 8.1 mph - N/A   Overcast
11:35 PM 41.9 °F 36.3 °F 29.8 °F 62% 30.28 in 10.0 mi NNW 9.2 mph 17.3 mph N/A   Overcast
11:54 PM 41.2 °F 37.3 °F 30.0 °F 65% 30.28 in 10.0 mi NW 5.8 mph - N/A   Mostly Cloudy